createdAt,value
2018-12-16T00:00:02.163Z,8.93
2018-12-16T00:02:32.526Z,9.40
2018-12-16T00:05:09.081Z,10.30
2018-12-16T00:07:39.464Z,9.50
2018-12-16T00:10:09.837Z,9.23
2018-12-16T00:12:40.253Z,9.87
2018-12-16T00:15:10.637Z,9.87
2018-12-16T00:17:41.021Z,10.50
2018-12-16T00:20:13.441Z,10.03
2018-12-16T00:22:43.757Z,9.40
2018-12-16T00:25:14.144Z,9.50
2018-12-16T00:27:44.508Z,8.10
2018-12-16T00:30:14.884Z,7.67
2018-12-16T00:32:45.254Z,8.47
2018-12-16T00:35:15.694Z,8.10
2018-12-16T00:37:46.059Z,7.33
2018-12-16T00:40:16.431Z,6.17
2018-12-16T00:42:46.832Z,6.13
2018-12-16T00:45:22.328Z,5.27
2018-12-16T00:47:52.675Z,5.70
2018-12-16T00:50:24.008Z,5.83
2018-12-16T00:52:55.147Z,6.03
2018-12-16T00:55:25.599Z,5.90
2018-12-16T00:57:55.921Z,6.03
2018-12-16T01:00:27.055Z,5.60
2018-12-16T01:02:59.529Z,5.30
2018-12-16T01:05:30.683Z,5.40
2018-12-16T01:08:01.765Z,5.63
2018-12-16T01:10:32.199Z,5.00
2018-12-16T01:13:09.880Z,5.27
2018-12-16T01:15:43.373Z,4.53
2018-12-16T01:18:13.761Z,4.90
2018-12-16T01:20:44.202Z,4.50
2018-12-16T01:23:16.593Z,4.43
2018-12-16T01:25:47.737Z,4.57
2018-12-16T01:28:18.111Z,4.33
2018-12-16T01:33:33.232Z,4.50
2018-12-16T01:36:04.358Z,4.67
2018-12-16T01:38:34.738Z,4.40
2018-12-16T01:41:05.300Z,4.23
2018-12-16T01:43:35.646Z,3.87
2018-12-16T01:46:06.008Z,3.63
2018-12-16T01:48:36.381Z,3.83
2018-12-16T01:51:07.459Z,4.17
2018-12-16T01:53:38.589Z,3.90
2018-12-16T01:56:09.938Z,3.90
2018-12-16T01:58:40.340Z,3.23
2018-12-16T02:01:11.015Z,3.33
2018-12-16T02:03:42.091Z,3.20
2018-12-16T02:06:18.936Z,3.47
2018-12-16T02:08:50.067Z,3.70
2018-12-16T02:11:20.703Z,3.67
2018-12-16T02:13:51.882Z,2.77
2018-12-16T02:16:24.324Z,2.87
2018-12-16T02:18:55.395Z,3.50
2018-12-16T02:21:26.857Z,3.60
2018-12-16T02:23:57.166Z,3.13
2018-12-16T02:26:27.525Z,3.80
2018-12-16T02:28:58.204Z,4.30
2018-12-16T02:31:29.333Z,3.37
2018-12-16T02:33:59.702Z,3.03
2018-12-16T02:36:30.904Z,3.30
2018-12-16T02:39:01.279Z,3.20
2018-12-16T02:41:33.701Z,3.30
2018-12-16T02:44:04.103Z,3.40
2018-12-16T02:46:34.418Z,2.90
2018-12-16T02:49:04.739Z,2.87
2018-12-16T02:51:41.576Z,3.23
2018-12-16T02:54:11.942Z,3.20
2018-12-16T02:57:01.733Z,2.83
2018-12-16T02:59:52.499Z,3.00
2018-12-16T03:02:23.666Z,2.80
2018-12-16T03:04:57.336Z,2.90
2018-12-16T03:07:28.563Z,2.40
2018-12-16T03:09:58.939Z,2.60
2018-12-16T03:12:29.310Z,3.03
2018-12-16T03:14:59.954Z,2.80
2018-12-16T03:17:30.339Z,3.37
2018-12-16T03:20:01.941Z,2.90
2018-12-16T03:22:33.166Z,2.53
2018-12-16T03:25:03.481Z,2.77
2018-12-16T03:27:33.860Z,2.30
2018-12-16T03:30:04.469Z,2.83
2018-12-16T03:32:35.826Z,3.37
2018-12-16T03:35:06.168Z,2.47
2018-12-16T03:37:36.572Z,2.60
2018-12-16T03:40:07.968Z,2.63
2018-12-16T03:42:38.332Z,2.50
2018-12-16T03:45:08.734Z,2.47
2018-12-16T03:47:39.307Z,2.90
2018-12-16T03:50:10.444Z,3.07
2018-12-16T03:52:42.616Z,2.90
2018-12-16T03:55:13.761Z,2.80
2018-12-16T03:57:45.107Z,3.03
2018-12-16T04:00:16.228Z,2.60
2018-12-16T04:02:46.593Z,3.20
2018-12-16T04:05:16.917Z,2.73
2018-12-16T04:07:47.734Z,2.70
2018-12-16T04:10:19.097Z,2.93
2018-12-16T04:12:50.236Z,3.00
2018-12-16T04:15:21.412Z,2.57
2018-12-16T04:17:51.798Z,3.30
2018-12-16T04:20:22.169Z,2.63
2018-12-16T04:22:52.603Z,3.13
2018-12-16T04:25:28.101Z,3.00
2018-12-16T04:27:59.249Z,3.03
2018-12-16T04:30:30.429Z,3.07
2018-12-16T04:33:00.749Z,3.07
2018-12-16T04:35:31.115Z,2.83
2018-12-16T04:38:01.785Z,3.07
2018-12-16T04:40:32.917Z,2.73
2018-12-16T04:43:04.060Z,3.00
2018-12-16T04:45:34.468Z,3.10
2018-12-16T04:48:04.847Z,3.60
2018-12-16T04:50:35.215Z,2.90
2018-12-16T04:53:05.928Z,3.17
2018-12-16T04:55:43.456Z,3.20
2018-12-16T04:58:13.811Z,3.60
2018-12-16T05:00:47.997Z,3.17
2018-12-16T05:03:18.369Z,3.33
2018-12-16T05:05:48.984Z,2.63
2018-12-16T05:08:20.146Z,2.47
2018-12-16T05:10:51.198Z,2.67
2018-12-16T05:13:21.639Z,2.70
2018-12-16T05:16:11.370Z,2.60
2018-12-16T05:18:42.494Z,2.60
2018-12-16T05:21:12.877Z,2.77
2018-12-16T05:23:43.254Z,2.73
2018-12-16T05:26:13.664Z,2.97
2018-12-16T05:28:44.334Z,3.07
2018-12-16T05:31:14.710Z,2.87
2018-12-16T05:33:45.142Z,3.07
2018-12-16T05:36:15.507Z,2.60
2018-12-16T05:38:46.859Z,2.90
2018-12-16T05:41:17.978Z,2.77
2018-12-16T05:43:48.358Z,3.00
2018-12-16T05:46:18.720Z,2.60
2018-12-16T05:51:55.222Z,2.53
2018-12-16T05:54:25.582Z,2.37
2018-12-16T05:56:56.655Z,3.37
2018-12-16T05:59:34.374Z,2.40
2018-12-16T06:02:05.253Z,2.83
2018-12-16T06:04:36.390Z,3.33
2018-12-16T06:07:07.597Z,2.70
2018-12-16T06:09:38.033Z,2.53
2018-12-16T06:12:08.365Z,3.40
2018-12-16T06:14:38.710Z,3.07
2018-12-16T06:17:09.786Z,3.10
2018-12-16T06:19:40.159Z,3.00
2018-12-16T06:22:11.427Z,3.20
2018-12-16T06:24:42.504Z,2.87
2018-12-16T06:27:12.898Z,3.47
2018-12-16T06:29:44.072Z,2.80
2018-12-16T06:32:14.459Z,3.40
2018-12-16T06:34:44.776Z,3.67
2018-12-16T06:37:15.170Z,3.10
2018-12-16T06:39:47.576Z,3.07
2018-12-16T06:42:17.884Z,4.03
2018-12-16T06:44:48.295Z,3.53
2018-12-16T06:47:40.845Z,3.40
2018-12-16T06:50:31.635Z,3.30
2018-12-16T06:53:02.012Z,3.10
2018-12-16T06:55:32.380Z,3.13
2018-12-16T06:58:02.827Z,3.57
2018-12-16T07:00:33.229Z,3.23
2018-12-16T07:03:03.594Z,3.90
2018-12-16T07:05:55.426Z,3.87
2018-12-16T07:08:25.794Z,3.20
2018-12-16T07:10:56.164Z,3.60
2018-12-16T07:13:45.954Z,4.30
2018-12-16T07:16:16.296Z,3.67
2018-12-16T07:18:46.612Z,3.73
2018-12-16T07:21:16.999Z,3.53
2018-12-16T07:23:48.064Z,3.90
2018-12-16T07:26:18.370Z,3.70
2018-12-16T07:28:48.748Z,3.73
2018-12-16T07:31:20.331Z,3.93
2018-12-16T07:33:51.651Z,3.90
2018-12-16T07:36:22.090Z,3.23
2018-12-16T07:38:52.384Z,3.23
2018-12-16T07:41:22.931Z,3.70
2018-12-16T07:43:53.391Z,3.47
2018-12-16T07:46:24.534Z,3.87
2018-12-16T07:48:55.886Z,3.57
2018-12-16T07:51:27.056Z,3.70
2018-12-16T07:53:57.453Z,3.60
2018-12-16T07:56:27.784Z,3.50
2018-12-16T07:58:58.232Z,3.77
2018-12-16T08:01:28.544Z,3.83
2018-12-16T08:03:58.913Z,3.53
2018-12-16T08:06:29.311Z,4.23
2018-12-16T08:09:00.631Z,3.43
2018-12-16T08:11:30.949Z,3.70
2018-12-16T08:14:02.846Z,3.80
2018-12-16T08:16:34.145Z,4.00
2018-12-16T08:19:07.193Z,3.37
2018-12-16T08:21:34.865Z,3.97
2018-12-16T08:24:05.448Z,3.60
2018-12-16T08:26:36.575Z,4.10
2018-12-16T08:29:06.976Z,3.90
2018-12-16T08:31:37.352Z,3.83
2018-12-16T08:34:07.718Z,3.57
2018-12-16T08:36:44.266Z,3.33
2018-12-16T08:39:14.642Z,4.10
2018-12-16T08:41:45.303Z,3.70
2018-12-16T08:44:16.711Z,4.20
2018-12-16T08:46:47.087Z,4.10
2018-12-16T08:49:17.403Z,3.70
2018-12-16T08:51:48.585Z,4.57
2018-12-16T08:54:29.942Z,3.70
2018-12-16T08:56:54.147Z,3.53
2018-12-16T08:59:24.839Z,3.37
2018-12-16T09:01:56.999Z,3.83
2018-12-16T09:04:28.142Z,3.50
2018-12-16T09:06:59.263Z,4.33
2018-12-16T09:09:29.834Z,3.77
2018-12-16T09:12:00.198Z,3.20
2018-12-16T09:14:52.334Z,3.97
2018-12-16T09:17:22.830Z,3.63
2018-12-16T09:19:53.143Z,3.30
2018-12-16T09:22:24.259Z,3.20
2018-12-16T09:24:54.566Z,3.10
2018-12-16T09:27:44.552Z,3.27
2018-12-16T09:30:35.256Z,3.97
2018-12-16T09:33:06.707Z,3.70
2018-12-16T09:35:39.069Z,3.23
2018-12-16T09:38:29.119Z,3.53
2018-12-16T09:40:59.433Z,3.30
2018-12-16T09:43:29.991Z,2.93
2018-12-16T09:46:00.437Z,3.13
2018-12-16T09:48:30.814Z,3.43
2018-12-16T09:51:03.236Z,2.73
2018-12-16T09:53:35.843Z,3.20
2018-12-16T09:56:06.211Z,3.20
2018-12-16T09:58:36.773Z,2.93
2018-12-16T10:01:09.444Z,2.73
2018-12-16T10:03:40.853Z,3.47
2018-12-16T10:06:11.164Z,3.60
2018-12-16T10:11:23.414Z,3.03
2018-12-16T10:13:54.581Z,3.03
2018-12-16T10:16:24.898Z,3.73
2018-12-16T10:18:55.526Z,3.43
2018-12-16T10:21:27.671Z,3.37
2018-12-16T10:23:58.749Z,3.23
2018-12-16T10:26:29.127Z,3.30
2018-12-16T10:28:59.501Z,3.37
2018-12-16T10:31:30.052Z,2.67
2018-12-16T10:34:04.492Z,3.67
2018-12-16T10:36:34.806Z,3.77
2018-12-16T10:39:05.183Z,3.23
2018-12-16T10:41:36.306Z,3.70
2018-12-16T10:44:06.952Z,4.30
2018-12-16T10:46:38.099Z,3.53
2018-12-16T10:49:09.278Z,4.62
2018-12-16T10:51:41.702Z,3.50
2018-12-16T10:54:12.070Z,3.57
2018-12-16T10:56:42.680Z,3.40
2018-12-16T10:59:13.310Z,3.27
2018-12-16T11:01:44.452Z,3.50
2018-12-16T11:04:15.670Z,4.37
2018-12-16T11:06:46.220Z,3.63
2018-12-16T11:09:17.363Z,3.20
2018-12-16T11:11:48.823Z,3.63
2018-12-16T11:14:20.993Z,3.90
2018-12-16T11:16:51.306Z,3.60
2018-12-16T11:19:22.529Z,3.53
2018-12-16T11:21:52.901Z,3.37
2018-12-16T11:24:23.985Z,3.40
2018-12-16T11:27:03.035Z,3.80
2018-12-16T11:29:35.036Z,3.20
2018-12-16T11:32:08.299Z,3.03
2018-12-16T11:34:41.598Z,3.37
2018-12-16T11:37:19.393Z,3.57
2018-12-16T11:39:53.452Z,3.70
2018-12-16T11:42:23.131Z,3.37
2018-12-16T11:44:53.662Z,3.47
2018-12-16T11:47:26.924Z,3.97
2018-12-16T11:50:01.416Z,3.67
2018-12-16T11:52:31.635Z,4.10
2018-12-16T11:55:02.013Z,4.00
2018-12-16T11:57:32.456Z,3.90
2018-12-16T12:00:06.123Z,3.93
2018-12-16T12:02:58.207Z,4.63
2018-12-16T12:05:29.352Z,6.40
2018-12-16T12:07:59.680Z,4.63
2018-12-16T12:10:31.122Z,5.87
2018-12-16T12:13:04.215Z,5.53
2018-12-16T12:15:36.891Z,5.67
2018-12-16T12:18:07.984Z,5.23
2018-12-16T12:20:38.565Z,5.53
2018-12-16T12:23:09.941Z,6.90
2018-12-16T12:25:41.350Z,5.40
2018-12-16T12:28:11.674Z,5.17
2018-12-16T12:30:42.324Z,4.03
2018-12-16T12:33:13.683Z,4.70
2018-12-16T12:35:44.002Z,4.00
2018-12-16T12:38:15.125Z,4.33
2018-12-16T12:40:45.440Z,4.50
2018-12-16T12:43:16.012Z,3.90
2018-12-16T12:45:46.471Z,3.80
2018-12-16T12:48:24.436Z,3.83
2018-12-16T12:50:55.812Z,4.27
2018-12-16T12:53:26.189Z,5.00
2018-12-16T12:55:56.568Z,4.20
2018-12-16T12:58:33.140Z,4.37
2018-12-16T13:01:03.448Z,4.27
2018-12-16T13:03:34.020Z,4.20
2018-12-16T13:06:04.829Z,3.57
2018-12-16T13:08:35.160Z,6.67
2018-12-16T13:11:05.484Z,9.37
2018-12-16T13:13:37.117Z,10.20
2018-12-16T13:16:07.432Z,12.50
2018-12-16T13:18:37.807Z,23.10
2018-12-16T13:21:08.203Z,13.63
2018-12-16T13:23:38.584Z,7.83
2018-12-16T13:26:08.912Z,13.67
2018-12-16T13:28:39.595Z,8.10
2018-12-16T13:31:13.151Z,10.30
2018-12-16T13:33:43.800Z,6.67
2018-12-16T13:36:14.389Z,7.53
2018-12-16T13:38:44.771Z,4.90
2018-12-16T13:41:16.963Z,7.82
2018-12-16T13:43:49.606Z,5.47
2018-12-16T13:46:20.697Z,8.38
2018-12-16T13:48:51.009Z,7.13
2018-12-16T13:51:24.877Z,10.30
2018-12-16T13:53:56.018Z,10.13
2018-12-16T13:56:27.167Z,9.90
2018-12-16T13:58:59.271Z,7.20
2018-12-16T14:01:29.660Z,7.40
2018-12-16T14:04:00.805Z,6.27
2018-12-16T14:06:32.048Z,8.63
2018-12-16T14:09:03.414Z,14.10
2018-12-16T14:11:34.035Z,14.23
2018-12-16T14:16:50.093Z,14.80
2018-12-16T14:19:27.662Z,13.20
2018-12-16T14:21:58.375Z,20.60
2018-12-16T14:24:30.753Z,14.53
2018-12-16T14:27:01.023Z,14.90
2018-12-16T14:29:37.857Z,17.07
2018-12-16T14:32:08.488Z,12.10
2018-12-16T14:34:39.847Z,10.00
2018-12-16T14:37:10.471Z,10.77
2018-12-16T14:39:41.090Z,13.50
2018-12-16T14:42:11.508Z,16.83
2018-12-16T14:44:42.368Z,14.27
2018-12-16T14:47:14.409Z,13.57
2018-12-16T14:49:46.562Z,11.97
2018-12-16T14:52:19.082Z,12.27
2018-12-16T14:54:49.628Z,14.67
2018-12-16T14:57:19.985Z,17.20
2018-12-16T14:59:50.377Z,14.23
2018-12-16T15:02:21.393Z,11.33
2018-12-16T15:04:54.247Z,8.07
2018-12-16T15:07:23.862Z,7.50
2018-12-16T15:09:54.249Z,8.00
2018-12-16T15:12:24.561Z,7.23
2018-12-16T15:14:55.132Z,7.00
2018-12-16T15:17:26.154Z,6.13
2018-12-16T15:19:57.693Z,6.70
2018-12-16T15:22:28.284Z,6.77
2018-12-16T15:25:00.329Z,7.27
2018-12-16T15:27:31.641Z,7.67
2018-12-16T15:30:02.017Z,6.97
2018-12-16T15:32:32.364Z,7.53
2018-12-16T15:35:02.936Z,7.60
2018-12-16T15:37:33.524Z,7.33
2018-12-16T15:40:06.360Z,6.83
2018-12-16T15:42:35.003Z,6.93
2018-12-16T15:45:06.340Z,8.87
2018-12-16T15:47:36.939Z,10.97
2018-12-16T15:50:07.326Z,10.53
2018-12-16T15:52:37.703Z,7.13
2018-12-16T15:55:08.126Z,6.90
2018-12-16T15:57:38.503Z,6.80
2018-12-16T16:00:08.876Z,6.30
2018-12-16T16:02:39.540Z,7.37
2018-12-16T16:05:10.685Z,7.13
2018-12-16T16:07:41.838Z,5.87
2018-12-16T16:10:12.275Z,5.87
2018-12-16T16:12:42.657Z,6.53
2018-12-16T16:15:12.975Z,8.27
2018-12-16T16:17:44.347Z,6.57
2018-12-16T16:20:15.785Z,6.60
2018-12-16T16:22:47.017Z,7.17
2018-12-16T16:25:17.424Z,10.60
2018-12-16T16:28:07.172Z,8.60
2018-12-16T16:30:38.360Z,8.23
2018-12-16T16:33:09.512Z,12.80
2018-12-16T16:35:39.894Z,13.83
2018-12-16T16:38:10.346Z,12.83
2018-12-16T16:41:02.147Z,9.37
2018-12-16T16:43:32.562Z,14.45
2018-12-16T16:46:03.657Z,11.10
2018-12-16T16:48:34.053Z,7.83
2018-12-16T16:51:04.416Z,8.93
2018-12-16T16:53:34.800Z,7.83
2018-12-16T16:56:05.197Z,10.00
2018-12-16T16:58:36.397Z,8.87
2018-12-16T17:01:08.841Z,8.23
2018-12-16T17:03:39.215Z,6.97
2018-12-16T17:06:09.690Z,7.50
2018-12-16T17:08:40.049Z,7.10
2018-12-16T17:11:10.625Z,8.87
2018-12-16T17:13:41.419Z,10.23
2018-12-16T17:16:17.104Z,9.53
2018-12-16T17:18:47.429Z,9.80
2018-12-16T17:21:17.887Z,9.23
2018-12-16T17:23:50.824Z,9.80
2018-12-16T17:26:30.013Z,9.17
2018-12-16T17:28:59.714Z,13.60
2018-12-16T17:31:30.797Z,10.33
2018-12-16T17:34:20.288Z,12.27
2018-12-16T17:36:53.288Z,8.83
2018-12-16T17:39:23.951Z,8.23
2018-12-16T17:41:55.330Z,9.27
2018-12-16T17:44:25.933Z,8.13
2018-12-16T17:46:56.251Z,8.20
2018-12-16T17:49:26.706Z,7.10
2018-12-16T17:51:57.029Z,8.43
2018-12-16T17:54:27.401Z,7.43
2018-12-16T17:56:57.755Z,7.07
2018-12-16T17:59:29.091Z,7.40
2018-12-16T18:01:59.475Z,7.80
2018-12-16T18:04:49.293Z,8.37
2018-12-16T18:07:19.613Z,8.87
2018-12-16T18:09:49.991Z,10.70
2018-12-16T18:15:04.654Z,7.50
2018-12-16T18:17:35.014Z,6.87
2018-12-16T18:20:05.328Z,7.33
2018-12-16T18:22:35.644Z,6.90
2018-12-16T18:25:06.022Z,7.13
2018-12-16T18:27:36.668Z,7.00
2018-12-16T18:30:07.239Z,7.53
2018-12-16T18:32:37.848Z,7.80
2018-12-16T18:35:08.168Z,6.90
2018-12-16T18:37:39.322Z,6.90
2018-12-16T18:40:10.073Z,5.97
2018-12-16T18:42:40.393Z,6.87
2018-12-16T18:45:10.792Z,7.53
2018-12-16T18:47:41.406Z,6.70
2018-12-16T18:50:11.790Z,6.93
2018-12-16T18:52:42.109Z,7.60
2018-12-16T18:55:12.509Z,7.63
2018-12-16T18:57:43.854Z,7.37
2018-12-16T19:00:14.987Z,7.20
2018-12-16T19:02:45.365Z,7.37
2018-12-16T19:05:15.916Z,7.70
2018-12-16T19:07:46.470Z,6.83
2018-12-16T19:10:17.876Z,8.00
2018-12-16T19:12:49.267Z,8.43
2018-12-16T19:15:19.836Z,8.10
2018-12-16T19:17:50.188Z,7.07
2018-12-16T19:20:26.891Z,6.80
2018-12-16T19:22:57.306Z,5.93
2018-12-16T19:25:27.679Z,5.73
2018-12-16T19:27:58.070Z,5.90
2018-12-16T19:30:28.603Z,6.37
2018-12-16T19:32:58.974Z,5.50
2018-12-16T19:35:29.343Z,5.87
2018-12-16T19:38:02.346Z,5.50
2018-12-16T19:40:30.323Z,5.40
2018-12-16T19:43:00.884Z,5.20
2018-12-16T19:45:32.350Z,4.90
2018-12-16T19:48:02.726Z,5.07
2018-12-16T19:50:35.150Z,5.40
2018-12-16T19:53:05.567Z,5.20
2018-12-16T19:55:35.879Z,5.23
2018-12-16T19:58:06.287Z,5.13
2018-12-16T20:00:36.738Z,5.20
2018-12-16T20:03:07.146Z,5.87
2018-12-16T20:05:39.530Z,4.70
2018-12-16T20:08:10.662Z,5.73
2018-12-16T20:10:40.986Z,4.87
2018-12-16T20:13:11.350Z,4.97
2018-12-16T20:15:41.732Z,5.20
2018-12-16T20:18:12.039Z,5.60
2018-12-16T20:20:42.596Z,4.47
2018-12-16T20:23:13.772Z,5.00
2018-12-16T20:25:44.149Z,4.90
2018-12-16T20:28:14.516Z,4.97
2018-12-16T20:30:47.880Z,6.95
2018-12-16T20:33:18.941Z,5.50
2018-12-16T20:35:50.030Z,6.00
2018-12-16T20:38:20.960Z,7.13
2018-12-16T20:40:54.591Z,6.43
2018-12-16T20:43:24.912Z,7.17
2018-12-16T20:45:55.297Z,6.10
2018-12-16T20:48:25.627Z,5.63
2018-12-16T20:50:55.938Z,4.90
2018-12-16T20:53:26.548Z,5.13
2018-12-16T20:55:56.917Z,4.77
2018-12-16T20:58:28.330Z,4.87
2018-12-16T21:00:59.523Z,5.07
2018-12-16T21:03:31.943Z,5.23
2018-12-16T21:06:03.033Z,4.77
2018-12-16T21:08:34.437Z,5.37
2018-12-16T21:11:23.768Z,5.13
2018-12-16T21:14:32.599Z,5.43
2018-12-16T21:17:27.988Z,5.43
2018-12-16T21:19:58.376Z,4.97
2018-12-16T21:22:28.747Z,4.90
2018-12-16T21:24:59.315Z,4.67
2018-12-16T21:27:29.796Z,4.70
2018-12-16T21:30:00.052Z,4.97
2018-12-16T21:32:30.490Z,5.53
2018-12-16T21:35:02.350Z,5.53
2018-12-16T21:37:33.281Z,5.87
2018-12-16T21:40:02.989Z,5.20
2018-12-16T21:42:33.419Z,4.80
2018-12-16T21:45:03.792Z,4.20
2018-12-16T21:47:34.163Z,4.17
2018-12-16T21:50:25.987Z,4.20
2018-12-16T21:53:03.673Z,3.97
2018-12-16T21:55:34.269Z,3.77
2018-12-16T21:58:05.410Z,4.10
2018-12-16T22:00:35.972Z,3.80
2018-12-16T22:03:06.774Z,3.43
2018-12-16T22:05:37.093Z,4.17
2018-12-16T22:08:08.670Z,4.03
2018-12-16T22:10:39.099Z,3.63
2018-12-16T22:13:09.473Z,4.10
2018-12-16T22:15:39.792Z,3.80
2018-12-16T22:18:30.620Z,4.10
2018-12-16T22:21:00.941Z,3.67
2018-12-16T22:23:31.303Z,4.00
2018-12-16T22:28:45.475Z,3.20
2018-12-16T22:31:15.900Z,3.70
2018-12-16T22:33:46.284Z,2.97
2018-12-16T22:36:16.683Z,3.10
2018-12-16T22:38:47.106Z,3.13
2018-12-16T22:41:17.664Z,2.80
2018-12-16T22:43:48.043Z,3.20
2018-12-16T22:46:18.477Z,2.73
2018-12-16T22:48:48.856Z,2.70
2018-12-16T22:51:19.420Z,2.87
2018-12-16T22:53:49.836Z,2.40
2018-12-16T22:56:20.213Z,2.13
2018-12-16T22:58:54.723Z,2.13
2018-12-16T23:01:25.088Z,2.20
2018-12-16T23:03:55.985Z,2.17
2018-12-16T23:06:25.996Z,2.27
2018-12-16T23:08:56.384Z,1.70
2018-12-16T23:11:26.757Z,1.60
2018-12-16T23:13:57.127Z,1.70
2018-12-16T23:16:27.561Z,1.90
2018-12-16T23:18:57.942Z,1.37
2018-12-16T23:21:29.346Z,1.20
2018-12-16T23:23:59.671Z,1.27
2018-12-16T23:26:29.983Z,2.27
2018-12-16T23:29:00.360Z,2.07
2018-12-16T23:31:30.982Z,2.00
2018-12-16T23:34:01.350Z,2.33
2018-12-16T23:36:31.662Z,1.97
2018-12-16T23:39:02.353Z,1.70
2018-12-16T23:41:33.488Z,2.23
2018-12-16T23:44:04.565Z,1.60
2018-12-16T23:46:37.622Z,2.00
2018-12-16T23:49:08.947Z,2.30
2018-12-16T23:51:39.323Z,1.67
2018-12-16T23:54:09.770Z,1.73
2018-12-16T23:57:01.570Z,1.97
2018-12-16T23:59:33.203Z,2.73
